sensor_id;sensor_type;location;lat;lon;timestamp;pressure;altitude;pressure_sealevel;temperature;humidity
45129;BME280;35512;56.312;101.728;2022-10-16T00:01:49;98092.00;;;-4.10;71.05
45129;BME280;35512;56.312;101.728;2022-10-16T00:04:18;98076.41;;;-4.11;70.65
45129;BME280;35512;56.312;101.728;2022-10-16T00:06:47;98080.78;;;-4.05;70.82
45129;BME280;35512;56.312;101.728;2022-10-16T00:09:16;98060.34;;;-4.10;71.07
45129;BME280;35512;56.312;101.728;2022-10-16T00:11:45;98083.09;;;-3.85;71.36
45129;BME280;35512;56.312;101.728;2022-10-16T00:14:15;98083.91;;;-3.72;71.05
45129;BME280;35512;56.312;101.728;2022-10-16T00:16:44;98079.34;;;-3.53;71.15
45129;BME280;35512;56.312;101.728;2022-10-16T00:19:13;98085.69;;;-2.90;71.18
45129;BME280;35512;56.312;101.728;2022-10-16T00:21:41;98072.94;;;-1.90;70.87
45129;BME280;35512;56.312;101.728;2022-10-16T00:24:29;98071.63;;;-0.70;70.01
45129;BME280;35512;56.312;101.728;2022-10-16T00:26:58;98070.97;;;0.27;68.82
45129;BME280;35512;56.312;101.728;2022-10-16T00:29:27;98066.94;;;1.15;68.12
45129;BME280;35512;56.312;101.728;2022-10-16T00:31:55;98070.59;;;1.98;67.17
45129;BME280;35512;56.312;101.728;2022-10-16T00:34:24;98065.22;;;2.65;66.58
45129;BME280;35512;56.312;101.728;2022-10-16T00:36:53;98060.34;;;2.93;65.85
45129;BME280;35512;56.312;101.728;2022-10-16T00:39:22;98066.88;;;3.32;65.91
45129;BME280;35512;56.312;101.728;2022-10-16T00:41:51;98061.81;;;4.15;65.28
45129;BME280;35512;56.312;101.728;2022-10-16T00:45:03;98061.03;;;4.97;64.09
45129;BME280;35512;56.312;101.728;2022-10-16T00:47:34;98065.72;;;5.73;63.78
45129;BME280;35512;56.312;101.728;2022-10-16T00:52:47;98049.97;;;7.12;62.16
45129;BME280;35512;56.312;101.728;2022-10-16T00:55:17;98054.06;;;7.74;61.55
45129;BME280;35512;56.312;101.728;2022-10-16T00:57:46;98058.28;;;8.34;61.33
45129;BME280;35512;56.312;101.728;2022-10-16T01:00:20;98060.44;;;9.09;60.38
45129;BME280;35512;56.312;101.728;2022-10-16T01:02:54;98061.38;;;9.79;59.18
45129;BME280;35512;56.312;101.728;2022-10-16T01:05:33;98057.22;;;10.26;58.68
45129;BME280;35512;56.312;101.728;2022-10-16T01:08:17;98059.66;;;10.83;58.00
45129;BME280;35512;56.312;101.728;2022-10-16T01:13:27;98057.78;;;11.95;56.55
45129;BME280;35512;56.312;101.728;2022-10-16T01:16:05;98054.69;;;12.51;56.36
45129;BME280;35512;56.312;101.728;2022-10-16T01:18:43;98061.00;;;12.43;56.71
45129;BME280;35512;56.312;101.728;2022-10-16T01:21:38;98058.91;;;12.61;55.93
45129;BME280;35512;56.312;101.728;2022-10-16T01:24:17;98060.09;;;12.84;55.70
45129;BME280;35512;56.312;101.728;2022-10-16T01:29:40;98064.06;;;13.49;55.16
45129;BME280;35512;56.312;101.728;2022-10-16T01:32:40;98065.09;;;13.97;54.29
45129;BME280;35512;56.312;101.728;2022-10-16T01:35:22;98066.88;;;14.34;53.52
45129;BME280;35512;56.312;101.728;2022-10-16T01:38:08;98069.69;;;14.82;52.59
45129;BME280;35512;56.312;101.728;2022-10-16T01:40:42;98071.75;;;14.85;52.60
45129;BME280;35512;56.312;101.728;2022-10-16T01:43:30;98057.97;;;15.10;52.08
45129;BME280;35512;56.312;101.728;2022-10-16T01:46:02;98062.81;;;15.52;51.55
45129;BME280;35512;56.312;101.728;2022-10-16T01:48:32;98070.41;;;15.27;50.90
45129;BME280;35512;56.312;101.728;2022-10-16T01:51:09;98067.78;;;15.30;51.37
45129;BME280;35512;56.312;101.728;2022-10-16T01:53:40;98068.97;;;15.49;50.52
45129;BME280;35512;56.312;101.728;2022-10-16T01:56:13;98056.38;;;15.60;50.32
45129;BME280;35512;56.312;101.728;2022-10-16T01:58:47;98064.28;;;15.30;49.95
45129;BME280;35512;56.312;101.728;2022-10-16T02:01:19;98065.94;;;14.70;50.19
45129;BME280;35512;56.312;101.728;2022-10-16T02:03:54;98075.47;;;14.08;50.42
45129;BME280;35512;56.312;101.728;2022-10-16T02:06:25;98068.22;;;13.71;51.11
45129;BME280;35512;56.312;101.728;2022-10-16T02:08:55;98085.56;;;14.35;50.30
45129;BME280;35512;56.312;101.728;2022-10-16T02:11:24;98067.91;;;15.53;48.58
45129;BME280;35512;56.312;101.728;2022-10-16T02:13:58;98067.09;;;16.24;46.61
45129;BME280;35512;56.312;101.728;2022-10-16T02:16:41;98068.41;;;16.53;46.81
45129;BME280;35512;56.312;101.728;2022-10-16T02:19:13;98064.66;;;15.99;45.53
45129;BME280;35512;56.312;101.728;2022-10-16T02:21:58;98067.31;;;15.44;45.33
45129;BME280;35512;56.312;101.728;2022-10-16T02:29:51;98054.78;;;15.08;42.46
45129;BME280;35512;56.312;101.728;2022-10-16T02:32:24;98061.97;;;15.83;40.72
45129;BME280;35512;56.312;101.728;2022-10-16T02:34:56;98046.66;;;16.14;39.66
45129;BME280;35512;56.312;101.728;2022-10-16T02:37:28;98051.66;;;16.75;38.33
45129;BME280;35512;56.312;101.728;2022-10-16T02:39:58;98049.31;;;16.77;37.85
45129;BME280;35512;56.312;101.728;2022-10-16T02:42:37;98056.66;;;16.92;37.98
45129;BME280;35512;56.312;101.728;2022-10-16T02:45:08;98047.00;;;15.58;38.10
45129;BME280;35512;56.312;101.728;2022-10-16T02:47:37;98039.81;;;13.68;40.86
45129;BME280;35512;56.312;101.728;2022-10-16T02:50:06;98029.63;;;13.78;41.25
45129;BME280;35512;56.312;101.728;2022-10-16T02:52:36;98045.06;;;14.91;39.86
45129;BME280;35512;56.312;101.728;2022-10-16T02:55:05;98037.38;;;15.28;39.55
45129;BME280;35512;56.312;101.728;2022-10-16T02:57:34;98042.75;;;16.15;38.41
45129;BME280;35512;56.312;101.728;2022-10-16T03:00:07;98036.94;;;16.36;36.54
45129;BME280;35512;56.312;101.728;2022-10-16T03:02:37;98037.25;;;16.12;36.24
45129;BME280;35512;56.312;101.728;2022-10-16T03:05:06;98042.81;;;13.92;36.70
45129;BME280;35512;56.312;101.728;2022-10-16T03:07:35;98051.84;;;11.50;40.01
45129;BME280;35512;56.312;101.728;2022-10-16T03:10:05;98039.44;;;9.46;42.47
45129;BME280;35512;56.312;101.728;2022-10-16T03:12:34;98041.56;;;8.15;44.51
45129;BME280;35512;56.312;101.728;2022-10-16T03:15:03;98044.13;;;7.60;45.98
45129;BME280;35512;56.312;101.728;2022-10-16T03:17:33;98042.28;;;7.33;46.61
45129;BME280;35512;56.312;101.728;2022-10-16T03:20:02;98040.22;;;7.16;46.94
45129;BME280;35512;56.312;101.728;2022-10-16T03:22:31;98035.34;;;7.04;47.47
45129;BME280;35512;56.312;101.728;2022-10-16T03:25:00;98041.22;;;7.06;48.14
45129;BME280;35512;56.312;101.728;2022-10-16T03:27:30;98039.91;;;8.05;48.11
45129;BME280;35512;56.312;101.728;2022-10-16T03:29:59;98026.06;;;10.93;45.85
45129;BME280;35512;56.312;101.728;2022-10-16T03:32:30;98023.88;;;11.16;43.45
45129;BME280;35512;56.312;101.728;2022-10-16T03:34:59;98026.16;;;10.76;43.21
45129;BME280;35512;56.312;101.728;2022-10-16T03:37:29;98022.91;;;11.21;43.04
45129;BME280;35512;56.312;101.728;2022-10-16T03:39:58;98018.44;;;11.46;42.95
45129;BME280;35512;56.312;101.728;2022-10-16T03:42:27;98016.31;;;13.60;41.49
45129;BME280;35512;56.312;101.728;2022-10-16T03:44:56;98018.84;;;15.69;37.58
45129;BME280;35512;56.312;101.728;2022-10-16T03:47:25;98008.06;;;17.28;37.00
45129;BME280;35512;56.312;101.728;2022-10-16T03:49:55;98017.63;;;18.81;34.77
45129;BME280;35512;56.312;101.728;2022-10-16T03:52:26;98011.50;;;18.91;32.34
45129;BME280;35512;56.312;101.728;2022-10-16T03:54:56;98010.78;;;17.85;33.01
45129;BME280;35512;56.312;101.728;2022-10-16T03:57:24;98004.50;;;15.88;34.57
45129;BME280;35512;56.312;101.728;2022-10-16T03:59:54;98003.47;;;16.16;33.95
45129;BME280;35512;56.312;101.728;2022-10-16T04:02:23;98007.09;;;16.90;33.91
45129;BME280;35512;56.312;101.728;2022-10-16T04:04:52;97996.47;;;17.65;33.14
45129;BME280;35512;56.312;101.728;2022-10-16T04:07:21;98004.66;;;18.71;33.37
45129;BME280;35512;56.312;101.728;2022-10-16T04:09:51;98006.94;;;18.62;30.13
45129;BME280;35512;56.312;101.728;2022-10-16T04:12:20;97993.13;;;17.79;30.31
45129;BME280;35512;56.312;101.728;2022-10-16T04:14:49;97993.09;;;18.06;31.79
45129;BME280;35512;56.312;101.728;2022-10-16T04:17:18;97996.06;;;18.72;30.68
45129;BME280;35512;56.312;101.728;2022-10-16T04:19:47;97995.06;;;18.09;29.90
45129;BME280;35512;56.312;101.728;2022-10-16T04:22:16;98008.28;;;18.03;30.12
45129;BME280;35512;56.312;101.728;2022-10-16T04:24:45;97998.78;;;18.28;30.60
45129;BME280;35512;56.312;101.728;2022-10-16T04:27:13;97994.19;;;18.80;29.46
45129;BME280;35512;56.312;101.728;2022-10-16T04:29:45;97982.81;;;19.27;29.63
45129;BME280;35512;56.312;101.728;2022-10-16T04:32:14;97986.72;;;20.06;30.29
45129;BME280;35512;56.312;101.728;2022-10-16T04:34:43;97978.72;;;19.69;27.90
45129;BME280;35512;56.312;101.728;2022-10-16T04:37:12;97983.63;;;19.31;28.76
45129;BME280;35512;56.312;101.728;2022-10-16T04:39:41;97973.09;;;19.40;29.03
45129;BME280;35512;56.312;101.728;2022-10-16T04:42:09;97964.75;;;19.15;28.21
45129;BME280;35512;56.312;101.728;2022-10-16T04:44:38;97981.38;;;18.47;28.65
45129;BME280;35512;56.312;101.728;2022-10-16T04:47:07;97978.25;;;18.89;29.16
45129;BME280;35512;56.312;101.728;2022-10-16T04:49:36;97964.53;;;19.49;28.07
45129;BME280;35512;56.312;101.728;2022-10-16T04:52:05;97964.97;;;19.58;28.08
45129;BME280;35512;56.312;101.728;2022-10-16T04:54:34;97954.41;;;19.60;29.08
45129;BME280;35512;56.312;101.728;2022-10-16T04:57:03;97972.53;;;19.83;28.08
45129;BME280;35512;56.312;101.728;2022-10-16T04:59:33;97953.97;;;19.51;27.65
45129;BME280;35512;56.312;101.728;2022-10-16T05:02:02;97945.16;;;19.93;28.21
45129;BME280;35512;56.312;101.728;2022-10-16T05:04:31;97945.94;;;20.01;27.08
45129;BME280;35512;56.312;101.728;2022-10-16T05:07:00;97940.09;;;20.03;27.80
45129;BME280;35512;56.312;101.728;2022-10-16T05:09:29;97949.16;;;20.25;27.44
45129;BME280;35512;56.312;101.728;2022-10-16T05:11:58;97935.00;;;20.05;26.89
45129;BME280;35512;56.312;101.728;2022-10-16T05:14:27;97939.16;;;19.63;26.69
45129;BME280;35512;56.312;101.728;2022-10-16T05:16:56;97940.28;;;19.54;27.92
45129;BME280;35512;56.312;101.728;2022-10-16T05:19:24;97942.88;;;20.21;27.71
45129;BME280;35512;56.312;101.728;2022-10-16T05:21:55;97933.84;;;21.18;27.44
45129;BME280;35512;56.312;101.728;2022-10-16T05:24:24;97921.72;;;20.90;25.85
45129;BME280;35512;56.312;101.728;2022-10-16T05:26:53;97933.84;;;21.18;27.19
45129;BME280;35512;56.312;101.728;2022-10-16T05:29:22;97925.19;;;21.30;26.25
45129;BME280;35512;56.312;101.728;2022-10-16T05:31:54;97924.75;;;21.57;26.77
45129;BME280;35512;56.312;101.728;2022-10-16T05:34:22;97921.63;;;21.33;25.89
45129;BME280;35512;56.312;101.728;2022-10-16T05:36:51;97915.69;;;21.56;26.64
45129;BME280;35512;56.312;101.728;2022-10-16T05:39:20;97913.72;;;21.60;25.91
45129;BME280;35512;56.312;101.728;2022-10-16T05:41:49;97911.78;;;21.54;25.63
45129;BME280;35512;56.312;101.728;2022-10-16T05:44:18;97911.56;;;20.90;24.80
45129;BME280;35512;56.312;101.728;2022-10-16T05:46:47;97913.91;;;20.92;26.09
45129;BME280;35512;56.312;101.728;2022-10-16T05:49:16;97895.41;;;21.18;25.96
45129;BME280;35512;56.312;101.728;2022-10-16T05:51:45;97885.88;;;21.48;24.39
45129;BME280;35512;56.312;101.728;2022-10-16T05:54:14;97887.63;;;20.40;23.95
45129;BME280;35512;56.312;101.728;2022-10-16T05:56:43;97893.34;;;19.56;24.77
45129;BME280;35512;56.312;101.728;2022-10-16T05:59:12;97892.63;;;18.89;24.63
45129;BME280;35512;56.312;101.728;2022-10-16T06:01:41;97881.75;;;19.07;26.08
45129;BME280;35512;56.312;101.728;2022-10-16T06:04:10;97876.63;;;19.97;25.02
45129;BME280;35512;56.312;101.728;2022-10-16T06:06:39;97875.47;;;20.09;25.05
45129;BME280;35512;56.312;101.728;2022-10-16T06:09:09;97879.41;;;20.40;24.11
45129;BME280;35512;56.312;101.728;2022-10-16T06:11:38;97867.59;;;19.82;24.36
45129;BME280;35512;56.312;101.728;2022-10-16T06:14:08;97877.03;;;19.92;24.62
45129;BME280;35512;56.312;101.728;2022-10-16T06:16:38;97873.91;;;20.01;23.81
45129;BME280;35512;56.312;101.728;2022-10-16T06:19:06;97869.16;;;19.83;24.27
45129;BME280;35512;56.312;101.728;2022-10-16T06:21:36;97868.41;;;19.90;24.47
45129;BME280;35512;56.312;101.728;2022-10-16T06:24:06;97866.09;;;20.28;24.37
45129;BME280;35512;56.312;101.728;2022-10-16T06:26:35;97868.00;;;19.99;24.00
45129;BME280;35512;56.312;101.728;2022-10-16T06:29:04;97863.59;;;19.58;24.06
45129;BME280;35512;56.312;101.728;2022-10-16T06:31:34;97859.69;;;19.70;24.39
45129;BME280;35512;56.312;101.728;2022-10-16T06:34:03;97847.00;;;19.15;23.44
45129;BME280;35512;56.312;101.728;2022-10-16T06:36:34;97848.06;;;18.92;24.60
45129;BME280;35512;56.312;101.728;2022-10-16T06:39:03;97846.69;;;19.31;25.15
45129;BME280;35512;56.312;101.728;2022-10-16T06:41:34;97859.81;;;20.17;24.89
45129;BME280;35512;56.312;101.728;2022-10-16T06:44:15;97842.59;;;20.23;23.80
45129;BME280;35512;56.312;101.728;2022-10-16T06:46:44;97839.84;;;20.20;24.72
45129;BME280;35512;56.312;101.728;2022-10-16T06:49:13;97843.34;;;20.42;23.92
45129;BME280;35512;56.312;101.728;2022-10-16T06:51:44;97833.16;;;20.28;23.57
45129;BME280;35512;56.312;101.728;2022-10-16T06:54:15;97831.56;;;20.49;24.36
45129;BME280;35512;56.312;101.728;2022-10-16T06:56:43;97825.72;;;20.47;24.00
45129;BME280;35512;56.312;101.728;2022-10-16T06:59:12;97824.53;;;19.97;23.01
45129;BME280;35512;56.312;101.728;2022-10-16T07:01:42;97820.78;;;19.14;23.03
45129;BME280;35512;56.312;101.728;2022-10-16T07:04:11;97817.19;;;18.36;23.50
45129;BME280;35512;56.312;101.728;2022-10-16T07:06:40;97803.44;;;18.25;24.22
45129;BME280;35512;56.312;101.728;2022-10-16T07:09:10;97811.94;;;18.13;23.64
45129;BME280;35512;56.312;101.728;2022-10-16T07:11:40;97822.41;;;17.62;23.96
45129;BME280;35512;56.312;101.728;2022-10-16T07:14:20;97813.56;;;18.21;25.14
45129;BME280;35512;56.312;101.728;2022-10-16T07:16:49;97818.03;;;19.06;24.61
45129;BME280;35512;56.312;101.728;2022-10-16T07:19:18;97804.28;;;18.88;23.60
45129;BME280;35512;56.312;101.728;2022-10-16T07:21:46;97801.09;;;18.86;23.61
45129;BME280;35512;56.312;101.728;2022-10-16T07:24:16;97801.38;;;18.67;24.00
45129;BME280;35512;56.312;101.728;2022-10-16T07:26:45;97796.97;;;18.48;24.01
45129;BME280;35512;56.312;101.728;2022-10-16T07:29:17;97799.81;;;18.66;24.76
45129;BME280;35512;56.312;101.728;2022-10-16T07:31:47;97780.84;;;18.98;24.59
45129;BME280;35512;56.312;101.728;2022-10-16T07:34:18;97781.28;;;19.07;24.35
45129;BME280;35512;56.312;101.728;2022-10-16T07:36:50;97787.13;;;19.02;24.27
45129;BME280;35512;56.312;101.728;2022-10-16T07:39:19;97785.53;;;18.35;23.32
45129;BME280;35512;56.312;101.728;2022-10-16T07:41:48;97782.72;;;17.76;23.87
45129;BME280;35512;56.312;101.728;2022-10-16T07:44:17;97787.44;;;17.37;24.26
45129;BME280;35512;56.312;101.728;2022-10-16T07:46:46;97786.88;;;17.24;24.18
45129;BME280;35512;56.312;101.728;2022-10-16T07:49:15;97776.44;;;16.96;24.58
45129;BME280;35512;56.312;101.728;2022-10-16T07:51:43;97776.59;;;17.11;24.96
45129;BME280;35512;56.312;101.728;2022-10-16T07:54:12;97770.50;;;17.62;25.51
45129;BME280;35512;56.312;101.728;2022-10-16T07:56:41;97769.41;;;18.15;24.56
45129;BME280;35512;56.312;101.728;2022-10-16T07:59:11;97775.22;;;18.10;24.91
45129;BME280;35512;56.312;101.728;2022-10-16T08:01:40;97780.28;;;18.08;24.39
45129;BME280;35512;56.312;101.728;2022-10-16T08:04:10;97767.44;;;17.71;24.77
45129;BME280;35512;56.312;101.728;2022-10-16T08:06:40;97768.31;;;17.37;25.10
45129;BME280;35512;56.312;101.728;2022-10-16T08:09:09;97764.00;;;16.99;24.97
45129;BME280;35512;56.312;101.728;2022-10-16T08:11:38;97767.97;;;16.78;26.03
45129;BME280;35512;56.312;101.728;2022-10-16T08:14:07;97763.63;;;17.00;25.48
45129;BME280;35512;56.312;101.728;2022-10-16T08:16:36;97756.66;;;17.06;25.66
45129;BME280;35512;56.312;101.728;2022-10-16T08:19:05;97746.66;;;16.87;25.37
45129;BME280;35512;56.312;101.728;2022-10-16T08:21:34;97751.16;;;16.72;26.26
45129;BME280;35512;56.312;101.728;2022-10-16T08:24:04;97747.91;;;16.60;25.96
45129;BME280;35512;56.312;101.728;2022-10-16T08:26:33;97755.72;;;16.08;26.21
45129;BME280;35512;56.312;101.728;2022-10-16T08:29:02;97746.22;;;15.98;26.90
45129;BME280;35512;56.312;101.728;2022-10-16T08:31:31;97746.53;;;15.69;26.25
45129;BME280;35512;56.312;101.728;2022-10-16T08:34:00;97739.06;;;15.43;26.71
45129;BME280;35512;56.312;101.728;2022-10-16T08:36:29;97733.38;;;15.29;26.81
45129;BME280;35512;56.312;101.728;2022-10-16T08:38:58;97724.19;;;15.37;26.54
45129;BME280;35512;56.312;101.728;2022-10-16T08:44:30;97735.56;;;14.25;27.14
45129;BME280;35512;56.312;101.728;2022-10-16T08:50:29;97725.41;;;10.33;30.39
45129;BME280;35512;56.312;101.728;2022-10-16T08:52:41;97727.59;;;8.85;32.23
45129;BME280;35512;56.312;101.728;2022-10-16T08:55:32;97731.84;;;7.76;33.91
45129;BME280;35512;56.312;101.728;2022-10-16T09:00:43;97722.59;;;6.51;35.25
45129;BME280;35512;56.312;101.728;2022-10-16T09:06:04;97728.88;;;6.10;36.52
45129;BME280;35512;56.312;101.728;2022-10-16T09:19:51;97725.53;;;5.16;37.97
45129;BME280;35512;56.312;101.728;2022-10-16T09:22:26;97710.69;;;4.90;38.12
45129;BME280;35512;56.312;101.728;2022-10-16T09:25:00;97720.69;;;4.85;37.98
45129;BME280;35512;56.312;101.728;2022-10-16T09:27:39;97716.78;;;4.77;38.79
45129;BME280;35512;56.312;101.728;2022-10-16T09:30:14;97711.41;;;4.63;38.54
45129;BME280;35512;56.312;101.728;2022-10-16T09:32:47;97705.41;;;4.52;39.33
45129;BME280;35512;56.312;101.728;2022-10-16T09:35:21;97703.97;;;4.41;39.22
45129;BME280;35512;56.312;101.728;2022-10-16T09:37:52;97706.88;;;4.26;39.83
45129;BME280;35512;56.312;101.728;2022-10-16T09:40:30;97706.22;;;4.15;40.67
45129;BME280;35512;56.312;101.728;2022-10-16T09:46:07;97703.16;;;3.83;41.22
45129;BME280;35512;56.312;101.728;2022-10-16T09:48:39;97693.66;;;3.72;41.85
45129;BME280;35512;56.312;101.728;2022-10-16T09:51:22;97697.81;;;3.59;42.32
45129;BME280;35512;56.312;101.728;2022-10-16T09:54:16;97693.75;;;3.43;42.60
45129;BME280;35512;56.312;101.728;2022-10-16T09:56:45;97693.34;;;3.30;43.10
45129;BME280;35512;56.312;101.728;2022-10-16T09:59:19;97683.56;;;3.20;44.14
45129;BME280;35512;56.312;101.728;2022-10-16T10:01:51;97693.75;;;3.13;44.53
45129;BME280;35512;56.312;101.728;2022-10-16T10:04:25;97689.56;;;3.07;45.37
45129;BME280;35512;56.312;101.728;2022-10-16T10:06:57;97688.13;;;2.91;44.75
45129;BME280;35512;56.312;101.728;2022-10-16T10:09:30;97684.69;;;2.85;45.71
45129;BME280;35512;56.312;101.728;2022-10-16T10:12:02;97680.25;;;2.75;45.52
45129;BME280;35512;56.312;101.728;2022-10-16T10:17:09;97685.66;;;2.65;45.80
45129;BME280;35512;56.312;101.728;2022-10-16T10:22:20;97680.41;;;2.54;46.15
45129;BME280;35512;56.312;101.728;2022-10-16T10:38:30;97668.84;;;2.30;48.25
45129;BME280;35512;56.312;101.728;2022-10-16T10:41:46;97670.50;;;2.26;48.07
45129;BME280;35512;56.312;101.728;2022-10-16T10:44:05;97663.28;;;2.26;48.86
45129;BME280;35512;56.312;101.728;2022-10-16T10:52:33;97653.47;;;2.16;49.16
45129;BME280;35512;56.312;101.728;2022-10-16T11:01:14;97649.50;;;2.14;49.55
45129;BME280;35512;56.312;101.728;2022-10-16T11:06:51;97641.88;;;2.02;49.98
45129;BME280;35512;56.312;101.728;2022-10-16T11:09:34;97638.94;;;1.98;50.28
45129;BME280;35512;56.312;101.728;2022-10-16T11:12:47;97647.44;;;2.06;51.31
45129;BME280;35512;56.312;101.728;2022-10-16T11:15:25;97642.38;;;2.04;51.45
45129;BME280;35512;56.312;101.728;2022-10-16T11:18:18;97640.28;;;1.96;50.97
45129;BME280;35512;56.312;101.728;2022-10-16T11:20:57;97635.53;;;1.93;51.32
45129;BME280;35512;56.312;101.728;2022-10-16T11:26:02;97633.66;;;1.93;52.12
45129;BME280;35512;56.312;101.728;2022-10-16T11:28:45;97627.00;;;1.91;52.53
45129;BME280;35512;56.312;101.728;2022-10-16T11:31:39;97632.03;;;1.92;52.43
45129;BME280;35512;56.312;101.728;2022-10-16T11:36:57;97629.16;;;1.89;53.77
45129;BME280;35512;56.312;101.728;2022-10-16T11:39:29;97625.47;;;1.84;53.86
45129;BME280;35512;56.312;101.728;2022-10-16T11:42:21;97629.97;;;1.84;53.94
45129;BME280;35512;56.312;101.728;2022-10-16T11:45:03;97626.53;;;1.78;53.93
45129;BME280;35512;56.312;101.728;2022-10-16T11:47:40;97633.75;;;1.78;54.27
45129;BME280;35512;56.312;101.728;2022-10-16T11:56:05;97618.38;;;1.64;54.65
45129;BME280;35512;56.312;101.728;2022-10-16T12:01:45;97617.59;;;1.64;55.42
45129;BME280;35512;56.312;101.728;2022-10-16T12:04:38;97612.53;;;1.62;55.56
45129;BME280;35512;56.312;101.728;2022-10-16T12:07:25;97599.25;;;1.57;55.79
45129;BME280;35512;56.312;101.728;2022-10-16T12:09:56;97600.03;;;1.52;56.28
45129;BME280;35512;56.312;101.728;2022-10-16T12:15:30;97608.84;;;1.53;56.66
45129;BME280;35512;56.312;101.728;2022-10-16T12:18:24;97606.97;;;1.54;56.76
45129;BME280;35512;56.312;101.728;2022-10-16T12:20:57;97598.47;;;1.51;57.45
45129;BME280;35512;56.312;101.728;2022-10-16T12:23:39;97597.16;;;1.44;57.05
45129;BME280;35512;56.312;101.728;2022-10-16T12:26:27;97588.13;;;1.45;58.14
45129;BME280;35512;56.312;101.728;2022-10-16T12:29:19;97583.09;;;1.38;57.73
45129;BME280;35512;56.312;101.728;2022-10-16T12:31:51;97586.25;;;1.40;58.50
45129;BME280;35512;56.312;101.728;2022-10-16T12:34:36;97577.78;;;1.38;58.63
45129;BME280;35512;56.312;101.728;2022-10-16T12:37:18;97573.50;;;1.37;59.01
45129;BME280;35512;56.312;101.728;2022-10-16T12:39:49;97565.84;;;1.25;59.67
45129;BME280;35512;56.312;101.728;2022-10-16T12:44:49;97564.00;;;1.26;60.75
45129;BME280;35512;56.312;101.728;2022-10-16T12:50:42;97563.22;;;1.20;60.70
45129;BME280;35512;56.312;101.728;2022-10-16T12:53:23;97565.63;;;1.16;61.35
45129;BME280;35512;56.312;101.728;2022-10-16T12:56:15;97557.94;;;1.10;61.22
45129;BME280;35512;56.312;101.728;2022-10-16T12:59:03;97556.63;;;1.02;61.19
45129;BME280;35512;56.312;101.728;2022-10-16T13:05:38;97557.44;;;0.97;62.80
45129;BME280;35512;56.312;101.728;2022-10-16T13:13:58;97529.03;;;0.88;63.46
45129;BME280;35512;56.312;101.728;2022-10-16T13:16:41;97535.13;;;0.88;63.73
45129;BME280;35512;56.312;101.728;2022-10-16T13:22:05;97534.88;;;0.84;64.63
45129;BME280;35512;56.312;101.728;2022-10-16T13:25:09;97532.75;;;0.81;64.90
45129;BME280;35512;56.312;101.728;2022-10-16T13:28:01;97520.56;;;0.75;64.40
45129;BME280;35512;56.312;101.728;2022-10-16T13:30:53;97524.56;;;0.73;65.21
45129;BME280;35512;56.312;101.728;2022-10-16T13:33:38;97517.91;;;0.75;65.29
45129;BME280;35512;56.312;101.728;2022-10-16T13:36:26;97514.72;;;0.73;65.68
45129;BME280;35512;56.312;101.728;2022-10-16T13:39:13;97516.84;;;0.71;65.74
45129;BME280;35512;56.312;101.728;2022-10-16T13:41:43;97518.69;;;0.71;65.67
45129;BME280;35512;56.312;101.728;2022-10-16T13:44:21;97512.31;;;0.72;66.19
45129;BME280;35512;56.312;101.728;2022-10-16T13:47:00;97517.91;;;0.70;66.31
45129;BME280;35512;56.312;101.728;2022-10-16T13:49:29;97500.09;;;0.65;66.12
45129;BME280;35512;56.312;101.728;2022-10-16T13:51:59;97504.91;;;0.63;66.12
45129;BME280;35512;56.312;101.728;2022-10-16T13:54:28;97507.56;;;0.63;66.55
45129;BME280;35512;56.312;101.728;2022-10-16T13:57:05;97507.31;;;0.60;65.85
45129;BME280;35512;56.312;101.728;2022-10-16T13:59:54;97505.41;;;0.65;66.66
45129;BME280;35512;56.312;101.728;2022-10-16T14:02:38;97496.41;;;0.61;66.71
45129;BME280;35512;56.312;101.728;2022-10-16T14:05:09;97491.34;;;0.70;67.40
45129;BME280;35512;56.312;101.728;2022-10-16T14:07:42;97490.28;;;0.71;67.41
45129;BME280;35512;56.312;101.728;2022-10-16T14:10:31;97485.75;;;0.66;67.18
45129;BME280;35512;56.312;101.728;2022-10-16T14:13:04;97475.94;;;0.62;67.88
45129;BME280;35512;56.312;101.728;2022-10-16T14:15:35;97491.59;;;0.69;68.16
45129;BME280;35512;56.312;101.728;2022-10-16T14:18:05;97489.47;;;0.65;68.42
45129;BME280;35512;56.312;101.728;2022-10-16T14:20:34;97491.91;;;0.62;68.57
45129;BME280;35512;56.312;101.728;2022-10-16T14:23:18;97488.41;;;0.66;68.52
45129;BME280;35512;56.312;101.728;2022-10-16T14:25:48;97486.56;;;0.67;68.96
45129;BME280;35512;56.312;101.728;2022-10-16T14:28:21;97480.19;;;0.63;69.17
45129;BME280;35512;56.312;101.728;2022-10-16T14:33:33;97483.66;;;0.53;68.70
45129;BME280;35512;56.312;101.728;2022-10-16T14:41:41;97474.69;;;0.44;68.97
45129;BME280;35512;56.312;101.728;2022-10-16T14:44:10;97479.72;;;0.45;68.75
45129;BME280;35512;56.312;101.728;2022-10-16T14:46:41;97473.34;;;0.41;68.61
45129;BME280;35512;56.312;101.728;2022-10-16T14:51:41;97463.22;;;0.43;69.81
45129;BME280;35512;56.312;101.728;2022-10-16T14:54:13;97466.44;;;0.40;69.50
45129;BME280;35512;56.312;101.728;2022-10-16T14:56:48;97473.84;;;0.43;69.82
45129;BME280;35512;56.312;101.728;2022-10-16T14:59:19;97472.31;;;0.37;69.63
45129;BME280;35512;56.312;101.728;2022-10-16T15:01:53;97474.97;;;0.32;69.34
45129;BME280;35512;56.312;101.728;2022-10-16T15:04:23;97471.25;;;0.23;68.77
45129;BME280;35512;56.312;101.728;2022-10-16T15:06:51;97460.41;;;0.09;69.00
45129;BME280;35512;56.312;101.728;2022-10-16T15:09:20;97460.91;;;0.11;69.47
45129;BME280;35512;56.312;101.728;2022-10-16T15:11:49;97459.34;;;0.05;69.03
45129;BME280;35512;56.312;101.728;2022-10-16T15:14:18;97464.16;;;-0.03;69.17